Time;durP1;ratioP1;P1;durP2;ratioP2;P2;SDS_P1;SDS_P2;PMS_P1;PMS_P2;Temp;Humidity;BMP_temperature;BMP_pressure;BME280_temperature;BME280_humidity;BME280_pressure;Samples;Min_cycle;Max_cycle;Signal;HPM_P1;HPM_P2
2021/03/31 00:00:00;;;;;;;10.43;6.47;;;;;;;5.06;65.71;96725.38;5012815;28;20203;-60
2021/03/31 00:02:27;;;;;;;11.13;6.60;;;;;;;5.17;65.88;96731.50;5012736;28;20565;-62
2021/03/31 00:04:54;;;;;;;9.87;6.23;;;;;;;5.10;65.67;96730.84;5012464;28;20205;-62
2021/03/31 00:07:21;;;;;;;13.33;6.70;;;;;;;4.92;66.71;96733.59;5012433;28;20234;-62
2021/03/31 00:09:48;;;;;;;10.07;6.60;;;;;;;4.88;66.76;96738.38;5012602;28;20230;-62
2021/03/31 00:12:14;;;;;;;12.50;7.63;;;;;;;4.91;67.28;96732.78;5012744;28;20297;-61
2021/03/31 00:14:41;;;;;;;12.37;6.43;;;;;;;4.61;67.99;96732.94;5012570;28;20612;-61
2021/03/31 00:17:08;;;;;;;10.03;6.57;;;;;;;4.67;68.72;96729.47;5012470;28;20194;-62
2021/03/31 00:19:36;;;;;;;10.67;6.10;;;;;;;4.44;69.82;96726.09;5012413;28;20739;-62
2021/03/31 00:22:03;;;;;;;11.70;7.47;;;;;;;4.40;70.32;96724.97;5012109;28;20662;-62
2021/03/31 00:24:29;;;;;;;20.53;11.63;;;;;;;4.40;72.04;96717.25;5012202;28;20194;-61
2021/03/31 00:26:56;;;;;;;28.60;15.03;;;;;;;3.98;74.20;96722.50;5012229;28;20575;-62
2021/03/31 00:29:24;;;;;;;36.23;18.63;;;;;;;4.01;75.42;96728.97;5012366;28;20234;-62
2021/03/31 00:31:51;;;;;;;31.70;18.00;;;;;;;4.01;74.70;96722.03;5012060;28;20576;-61
2021/03/31 00:34:18;;;;;;;32.83;16.53;;;;;;;3.70;74.99;96735.13;5012016;28;20685;-61
2021/03/31 00:36:45;;;;;;;31.00;16.93;;;;;;;3.63;75.53;96724.97;5012227;28;20669;-62
2021/03/31 00:39:12;;;;;;;28.77;16.33;;;;;;;3.64;76.50;96723.16;5012058;28;20214;-62
2021/03/31 00:41:39;;;;;;;28.80;16.30;;;;;;;3.64;75.95;96715.44;5011069;28;20190;-62
2021/03/31 00:44:06;;;;;;;37.63;18.27;;;;;;;3.78;75.90;96727.13;5011802;28;20229;-61
2021/03/31 00:46:33;;;;;;;30.57;15.90;;;;;;;3.71;75.43;96721.28;5011765;28;20746;-62
2021/03/31 00:49:00;;;;;;;35.47;18.80;;;;;;;3.77;75.31;96720.41;5010812;28;20320;-60
2021/03/31 00:51:27;;;;;;;29.43;15.83;;;;;;;3.77;74.71;96715.28;5011613;28;20582;-61
2021/03/31 00:53:54;;;;;;;31.60;16.33;;;;;;;3.56;75.04;96713.97;5011602;28;20194;-64
2021/03/31 00:56:21;;;;;;;32.53;16.67;;;;;;;3.65;74.55;96717.03;5011739;28;20234;-63
2021/03/31 00:58:48;;;;;;;27.67;14.30;;;;;;;3.75;73.93;96717.28;5011597;28;20310;-63
2021/03/31 01:01:15;;;;;;;20.27;10.93;;;;;;;3.90;74.05;96712.50;5011541;28;20305;-63
2021/03/31 01:03:42;;;;;;;13.87;7.67;;;;;;;3.90;73.18;96713.28;5011490;28;20224;-63
2021/03/31 01:06:09;;;;;;;10.07;6.80;;;;;;;3.77;74.16;96716.06;5011754;28;20281;-61
2021/03/31 01:08:36;;;;;;;14.90;8.63;;;;;;;3.66;74.88;96708.31;5011470;28;20225;-65
2021/03/31 01:11:04;;;;;;;15.07;9.57;;;;;;;3.76;74.98;96703.44;5011385;28;20233;-63
2021/03/31 01:13:48;;;;;;;19.97;12.13;;;;;;;3.65;76.68;96702.38;5011262;28;20199;-62
2021/03/31 01:16:26;;;;;;;25.00;16.20;;;;;;;3.63;76.46;96701.06;5011247;28;20202;-62
2021/03/31 01:18:59;;;;;;;22.30;14.20;;;;;;;3.69;77.68;96702.72;5011406;28;20205;-64
2021/03/31 01:21:59;;;;;;;21.33;10.83;;;;;;;3.47;76.54;96697.31;5011225;28;20202;-61
2021/03/31 01:25:16;;;;;;;20.13;10.77;;;;;;;3.21;76.75;96703.56;5011052;28;20205;-62
2021/03/31 01:28:04;;;;;;;31.03;14.43;;;;;;;3.11;77.64;96695.59;4971466;28;20226;-63
2021/03/31 01:30:38;;;;;;;42.97;17.10;;;;;;;3.22;76.98;96701.78;5010792;28;20609;-60
2021/03/31 01:33:34;;;;;;;13.80;8.40;;;;;;;3.32;76.67;96707.97;5011224;28;20244;-62
2021/03/31 01:36:03;;;;;;;9.63;6.70;;;;;;;3.36;75.53;96708.31;5010917;28;20194;-63
2021/03/31 01:38:30;;;;;;;12.00;6.60;;;;;;;3.28;75.58;96711.19;5010930;28;20190;-63
2021/03/31 01:41:01;;;;;;;9.33;5.87;;;;;;;3.28;75.98;96712.00;5010785;28;20198;-62
2021/03/31 01:43:31;;;;;;;9.47;5.67;;;;;;;3.30;76.21;96709.97;5010616;28;20230;-63
2021/03/31 01:45:59;;;;;;;8.77;6.33;;;;;;;3.36;75.82;96703.97;5010904;28;20870;-60
2021/03/31 01:48:32;;;;;;;9.47;5.67;;;;;;;3.39;75.26;96702.72;5010956;28;20710;-62
2021/03/31 01:51:04;;;;;;;8.50;5.97;;;;;;;3.46;74.59;96706.00;5010731;28;20681;-62
2021/03/31 01:53:33;;;;;;;10.70;6.00;;;;;;;3.34;75.82;96708.53;5010870;28;20225;-62
2021/03/31 01:56:00;;;;;;;8.93;5.60;;;;;;;3.36;75.83;96700.63;5010877;28;20209;-62
2021/03/31 01:58:31;;;;;;;9.53;5.37;;;;;;;3.32;75.89;96704.63;5010587;28;20258;-62
2021/03/31 02:00:59;;;;;;;9.83;5.93;;;;;;;3.15;77.08;96699.28;5010552;28;20194;-62
2021/03/31 02:03:31;;;;;;;8.60;6.13;;;;;;;3.17;76.78;96699.88;5010629;28;20226;-63
2021/03/31 02:05:59;;;;;;;9.13;6.37;;;;;;;3.16;77.00;96698.28;5010651;28;20633;-62
2021/03/31 02:08:28;;;;;;;13.97;9.50;;;;;;;2.95;77.51;96696.16;5010552;28;20271;-62
2021/03/31 02:10:55;;;;;;;11.40;7.40;;;;;;;2.97;77.07;96702.69;5010530;28;20819;-62
2021/03/31 02:13:23;;;;;;;9.60;6.60;;;;;;;2.99;77.67;96702.44;5010266;28;20204;-61
2021/03/31 02:15:56;;;;;;;8.20;6.07;;;;;;;3.02;76.77;96702.81;5010648;28;20206;-61
2021/03/31 02:18:25;;;;;;;9.57;6.40;;;;;;;3.16;76.34;96698.28;5010331;28;20206;-63
2021/03/31 02:20:54;;;;;;;9.03;6.40;;;;;;;3.18;76.55;96706.59;5010497;28;20235;-65
2021/03/31 02:23:22;;;;;;;11.13;6.60;;;;;;;3.19;76.13;96717.63;5010304;28;20665;-64
2021/03/31 02:25:50;;;;;;;9.40;5.97;;;;;;;3.12;77.15;96707.44;5010263;28;20194;-63
2021/03/31 02:28:17;;;;;;;9.57;6.13;;;;;;;3.12;76.46;96707.44;5010219;28;20239;-61
2021/03/31 02:30:44;;;;;;;8.73;6.40;;;;;;;3.09;76.25;96707.84;5010366;28;20900;-63
2021/03/31 02:33:12;;;;;;;10.00;6.63;;;;;;;3.09;76.52;96705.28;5010265;28;20248;-60
2021/03/31 02:35:42;;;;;;;9.40;5.80;;;;;;;3.01;76.44;96695.31;5010849;28;20248;-62
2021/03/31 02:38:13;;;;;;;13.13;6.23;;;;;;;3.08;76.85;96706.31;5010636;28;20206;-61
2021/03/31 02:40:41;;;;;;;9.40;5.97;;;;;;;2.95;77.29;96703.88;5010110;28;20293;-63
2021/03/31 02:43:13;;;;;;;10.07;6.27;;;;;;;3.06;77.13;96712.63;5009986;28;20292;-62
2021/03/31 02:49:02;;;;;;;11.07;6.10;;;;;;;3.02;77.01;96707.16;5010052;28;20320;-62
2021/03/31 02:51:33;;;;;;;9.17;6.60;;;;;;;2.97;76.91;96707.03;5010053;28;20216;-63
2021/03/31 02:54:02;;;;;;;9.53;5.70;;;;;;;3.04;76.57;96710.28;5010113;28;20194;-63
2021/03/31 02:56:30;;;;;;;8.90;5.83;;;;;;;2.97;76.74;96705.25;5010588;28;20583;-61
2021/03/31 02:59:00;;;;;;;13.93;6.60;;;;;;;3.04;76.86;96705.16;5009888;28;20257;-63
2021/03/31 03:01:27;;;;;;;13.23;6.97;;;;;;;2.87;77.47;96702.41;5010545;28;20293;-63
2021/03/31 03:03:56;;;;;;;10.33;7.70;;;;;;;2.81;77.91;96699.88;5010693;28;20209;-62
2021/03/31 03:06:24;;;;;;;9.77;6.30;;;;;;;2.81;77.80;96699.88;5014030;28;20596;-64
2021/03/31 03:08:52;;;;;;;7.87;6.00;;;;;;;2.81;78.18;96707.59;5013435;28;20197;-63
2021/03/31 03:11:20;;;;;;;13.07;6.37;;;;;;;2.74;78.93;96699.19;5013534;28;20669;-62
2021/03/31 03:13:48;;;;;;;11.97;6.97;;;;;;;2.79;78.60;96701.91;5013430;28;20533;-62
2021/03/31 03:16:17;;;;;;;12.97;7.23;;;;;;;2.85;78.06;96696.69;5013519;28;20202;-62
2021/03/31 03:18:44;;;;;;;14.00;8.40;;;;;;;2.82;77.79;96697.13;5013494;28;20270;-63
2021/03/31 03:21:13;;;;;;;12.27;7.90;;;;;;;2.72;77.82;96701.19;5013352;28;20202;-63
2021/03/31 03:23:42;;;;;;;20.00;9.20;;;;;;;2.68;78.52;96705.97;5013297;28;20639;-64
2021/03/31 03:26:11;;;;;;;14.57;9.83;;;;;;;2.95;77.62;96707.22;5013547;28;20265;-62
2021/03/31 03:28:40;;;;;;;16.17;8.60;;;;;;;2.86;78.01;96710.31;5013102;28;20222;-63
2021/03/31 03:31:08;;;;;;;10.80;7.23;;;;;;;2.59;78.74;96713.13;5013251;28;20198;-63
2021/03/31 03:33:36;;;;;;;12.50;7.83;;;;;;;2.53;78.02;96710.66;5013014;28;20665;-62
2021/03/31 03:36:05;;;;;;;15.17;9.83;;;;;;;2.23;78.72;96707.19;5013416;28;20230;-62
2021/03/31 03:38:33;;;;;;;15.00;9.13;;;;;;;1.83;79.72;96696.44;5013192;28;20260;-62
2021/03/31 03:41:03;;;;;;;17.43;10.10;;;;;;;1.84;80.05;96705.72;5013211;28;20212;-62
2021/03/31 03:43:30;;;;;;;16.37;9.80;;;;;;;1.58;80.24;96704.88;5013044;28;20758;-61
2021/03/31 03:45:59;;;;;;;15.63;9.47;;;;;;;1.33;82.24;96693.81;5012725;28;20194;-64
2021/03/31 03:48:26;;;;;;;17.67;10.80;;;;;;;1.20;82.43;96697.19;5012842;28;20713;-61
2021/03/31 03:50:54;;;;;;;16.57;10.90;;;;;;;0.97;83.64;96693.56;5012871;28;20234;-63
2021/03/31 03:53:28;;;;;;;18.70;11.57;;;;;;;0.96;84.41;96699.66;5012836;28;20205;-62
2021/03/31 03:55:56;;;;;;;20.80;11.43;;;;;;;0.80;84.99;96704.25;5013162;28;20204;-62
2021/03/31 03:58:25;;;;;;;20.17;11.43;;;;;;;0.70;85.61;96710.75;5012616;28;20370;-62
2021/03/31 04:00:52;;;;;;;22.27;12.10;;;;;;;0.79;86.27;96700.13;5012605;28;20238;-62
2021/03/31 04:03:19;;;;;;;20.63;12.73;;;;;;;0.77;86.99;96703.88;5012411;28;20202;-62
2021/03/31 04:05:46;;;;;;;20.27;12.77;;;;;;;0.84;87.39;96708.00;5012360;28;20206;-62
2021/03/31 04:08:13;;;;;;;22.20;12.63;;;;;;;1.05;87.41;96703.56;5012150;28;20199;-62
2021/03/31 04:10:44;;;;;;;28.07;13.37;;;;;;;1.16;87.42;96705.50;5012059;28;20325;-62
2021/03/31 04:13:12;;;;;;;21.40;12.60;;;;;;;1.14;87.06;96710.03;5012395;28;20202;-62
2021/03/31 04:15:46;;;;;;;17.33;11.80;;;;;;;0.84;84.61;96720.78;5011057;28;20196;-62
2021/03/31 04:18:14;;;;;;;19.07;11.23;;;;;;;0.78;84.17;96723.34;5012157;28;20206;-61
2021/03/31 04:20:42;;;;;;;16.17;10.77;;;;;;;0.69;83.79;96727.91;5012263;28;20206;-62
2021/03/31 04:23:09;;;;;;;16.40;10.57;;;;;;;0.70;83.33;96723.56;5012205;28;20196;-62
2021/03/31 04:25:37;;;;;;;19.13;11.53;;;;;;;0.60;82.81;96725.78;5012066;28;20200;-62
2021/03/31 04:28:08;;;;;;;24.07;11.70;;;;;;;0.61;83.23;96727.31;5012303;28;20730;-62
2021/03/31 04:30:39;;;;;;;21.20;11.90;;;;;;;0.51;83.86;96721.81;5012218;28;20320;-62
2021/03/31 04:33:08;;;;;;;19.90;11.67;;;;;;;0.45;84.55;96720.84;5009622;28;20205;-62
2021/03/31 04:35:35;;;;;;;18.70;10.97;;;;;;;0.62;84.31;96724.56;5011920;28;20277;-63
2021/03/31 04:38:16;;;;;;;17.73;11.00;;;;;;;0.51;84.80;96722.59;5011783;28;20241;-62
2021/03/31 04:40:58;;;;;;;24.50;11.37;;;;;;;0.66;84.56;96725.72;5011763;28;20207;-61
2021/03/31 04:43:26;;;;;;;21.07;11.93;;;;;;;0.78;84.66;96719.03;5011893;28;20226;-61
2021/03/31 04:45:57;;;;;;;23.70;12.37;;;;;;;0.91;85.30;96722.50;5011626;28;20803;-62
2021/03/31 04:48:24;;;;;;;19.03;11.70;;;;;;;0.94;84.82;96717.00;5011718;28;20196;-62
2021/03/31 04:50:51;;;;;;;19.10;10.60;;;;;;;1.00;84.80;96721.28;5011547;28;20587;-60
2021/03/31 04:53:18;;;;;;;28.37;12.27;;;;;;;1.05;84.01;96726.59;5011934;28;20262;-62
2021/03/31 04:55:46;;;;;;;18.80;11.10;;;;;;;1.10;83.40;96730.13;5011635;28;20279;-61
2021/03/31 04:58:14;;;;;;;27.00;11.83;;;;;;;1.11;83.84;96733.47;5011567;28;20203;-61
2021/03/31 05:00:42;;;;;;;24.80;11.47;;;;;;;1.23;83.29;96729.31;5011492;28;20301;-61
2021/03/31 05:03:09;;;;;;;24.93;12.97;;;;;;;1.30;83.85;96727.47;5011817;28;20203;-61
2021/03/31 05:05:36;;;;;;;23.67;14.20;;;;;;;1.27;85.04;96727.91;5011319;28;20201;-61
2021/03/31 05:08:03;;;;;;;24.27;14.40;;;;;;;1.46;85.77;96729.56;5011428;28;20291;-62
2021/03/31 05:10:30;;;;;;;36.67;16.17;;;;;;;1.62;85.94;96738.56;5011085;28;20320;-63
2021/03/31 05:12:57;;;;;;;32.67;19.13;;;;;;;1.67;85.97;96734.38;5011298;28;20272;-62
2021/03/31 05:15:25;;;;;;;30.23;18.07;;;;;;;1.70;86.08;96736.53;5011329;28;20202;-61
2021/03/31 05:17:51;;;;;;;30.93;16.67;;;;;;;1.64;88.55;96729.66;5011053;28;20195;-63
2021/03/31 05:20:18;;;;;;;38.83;18.37;;;;;;;1.99;87.14;96727.44;5011271;28;20204;-62
2021/03/31 05:22:45;;;;;;;47.43;19.90;;;;;;;2.21;87.09;96727.88;5011394;28;20279;-62
2021/03/31 05:25:13;;;;;;;36.23;17.30;;;;;;;2.39;87.68;96738.19;5011211;28;20207;-62
2021/03/31 05:27:39;;;;;;;27.23;15.90;;;;;;;2.43;87.68;96734.22;5010414;28;20219;-62
2021/03/31 05:30:08;;;;;;;32.93;17.23;;;;;;;2.51;88.10;96728.03;5010719;28;20599;-62
2021/03/31 05:32:36;;;;;;;23.73;15.20;;;;;;;2.63;87.39;96730.69;5009982;28;20293;-61
2021/03/31 05:35:04;;;;;;;29.43;16.17;;;;;;;3.01;87.01;96721.00;5011105;28;20258;-62
2021/03/31 05:37:30;;;;;;;48.10;19.80;;;;;;;3.64;85.98;96725.72;5010720;28;20190;-60
2021/03/31 05:39:57;;;;;;;51.53;21.93;;;;;;;4.49;83.47;96731.34;5010674;28;20279;-62
2021/03/31 05:42:24;;;;;;;40.77;21.70;;;;;;;5.14;78.57;96721.66;5010279;28;20194;-62
2021/03/31 05:44:51;;;;;;;40.93;18.07;;;;;;;5.66;75.79;96724.94;5010253;28;20234;-63
2021/03/31 05:47:24;;;;;;;57.67;20.17;;;;;;;6.00;73.60;96726.59;5010432;28;20202;-63
2021/03/31 05:49:53;;;;;;;47.63;19.20;;;;;;;6.10;72.32;96725.19;5010276;28;20222;-63
2021/03/31 05:52:20;;;;;;;41.60;22.10;;;;;;;6.02;71.62;96727.16;5010234;28;20244;-63
2021/03/31 05:54:47;;;;;;;26.67;14.67;;;;;;;6.04;68.41;96730.25;5010355;28;20246;-63
2021/03/31 05:57:17;;;;;;;22.13;12.17;;;;;;;5.87;67.96;96726.13;5010272;28;20233;-60
2021/03/31 05:59:47;;;;;;;19.53;11.83;;;;;;;5.86;67.75;96730.47;5009848;28;20197;-62
2021/03/31 06:02:16;;;;;;;21.00;11.67;;;;;;;5.81;68.18;96729.59;5009247;28;20672;-62
2021/03/31 06:04:44;;;;;;;23.20;12.63;;;;;;;5.92;67.32;96728.78;5010236;28;20235;-61
2021/03/31 06:07:13;;;;;;;23.63;14.40;;;;;;;5.94;68.77;96730.09;5010109;28;20197;-62
2021/03/31 06:10:08;;;;;;;33.27;14.40;;;;;;;6.16;68.63;96732.00;5009946;28;20335;-62
2021/03/31 06:12:36;;;;;;;27.77;14.63;;;;;;;6.19;66.95;96718.63;4975667;28;20200;-62
2021/03/31 06:15:27;;;;;;;23.53;15.00;;;;;;;6.44;66.40;96724.16;5009266;28;20202;-62
2021/03/31 06:17:56;;;;;;;24.70;15.00;;;;;;;6.43;66.49;96718.22;5010192;28;21281;-62
2021/03/31 06:20:41;;;;;;;38.53;16.40;;;;;;;6.69;66.70;96723.72;5009916;28;20257;-62
2021/03/31 06:23:33;;;;;;;26.40;15.37;;;;;;;6.96;68.53;96713.50;5010177;28;20206;-63
2021/03/31 06:26:02;;;;;;;33.57;15.97;;;;;;;7.09;66.58;96710.53;5009941;28;20248;-62
2021/03/31 06:28:31;;;;;;;25.30;16.37;;;;;;;7.47;64.78;96713.03;5010097;28;20255;-63
2021/03/31 06:31:12;;;;;;;29.70;18.67;;;;;;;7.65;64.43;96707.56;5009739;28;20268;-62
2021/03/31 06:33:44;;;;;;;26.37;15.40;;;;;;;7.68;64.25;96716.63;5009798;28;20703;-62
2021/03/31 06:36:13;;;;;;;34.10;14.77;;;;;;;7.90;65.08;96708.81;5009927;28;20659;-62
2021/03/31 06:38:47;;;;;;;21.83;13.17;;;;;;;8.02;67.93;96706.84;5010090;28;20206;-61
2021/03/31 06:41:26;;;;;;;19.33;11.67;;;;;;;7.99;66.42;96717.69;5013843;28;20202;-63
2021/03/31 06:44:05;;;;;;;25.70;12.57;;;;;;;7.91;67.13;96705.97;5013346;28;20760;-63
2021/03/31 06:46:40;;;;;;;18.77;13.23;;;;;;;8.21;66.02;96706.22;5013974;28;20669;-63
2021/03/31 06:49:08;;;;;;;30.40;14.50;;;;;;;8.59;64.76;96705.19;5013720;28;20197;-61
2021/03/31 06:51:35;;;;;;;29.00;14.43;;;;;;;8.85;64.68;96711.31;5013530;28;20674;-63
2021/03/31 06:54:21;;;;;;;20.87;12.60;;;;;;;9.17;63.86;96710.38;5013456;28;20198;-63
2021/03/31 06:56:55;;;;;;;28.77;14.23;;;;;;;9.32;63.31;96713.81;5013897;28;20209;-62
2021/03/31 06:59:30;;;;;;;29.37;15.37;;;;;;;9.37;63.02;96713.84;5013330;28;20201;-61
2021/03/31 07:01:58;;;;;;;30.27;17.33;;;;;;;9.86;63.88;96708.25;5013317;28;20187;-62
2021/03/31 07:04:26;;;;;;;32.20;16.83;;;;;;;9.97;60.76;96706.41;5013380;28;20657;-60
2021/03/31 07:07:02;;;;;;;20.80;13.93;;;;;;;10.02;61.22;96706.41;5013518;28;20202;-62
2021/03/31 07:09:33;;;;;;;23.60;15.77;;;;;;;10.33;60.93;96701.00;5011560;28;20269;-63
2021/03/31 07:12:01;;;;;;;19.43;13.83;;;;;;;10.49;60.12;96700.97;5013351;28;20210;-63
2021/03/31 07:17:25;;;;;;;25.67;15.17;;;;;;;10.85;54.43;96715.47;5013067;28;20194;-63
2021/03/31 07:19:53;;;;;;;20.73;12.73;;;;;;;10.58;54.77;96712.41;5013152;28;20213;-62
2021/03/31 07:22:21;;;;;;;20.47;12.60;;;;;;;10.86;52.48;96711.06;5012999;28;20305;-62
2021/03/31 07:25:01;;;;;;;18.43;12.83;;;;;;;10.60;53.43;96699.94;5013059;28;20198;-62
2021/03/31 07:27:29;;;;;;;18.30;11.97;;;;;;;10.75;52.06;96710.31;5012859;28;20289;-61
2021/03/31 07:30:09;;;;;;;17.33;12.57;;;;;;;10.78;52.58;96704.56;5012981;28;20233;-61
2021/03/31 07:32:44;;;;;;;24.97;16.33;;;;;;;10.83;54.26;96707.16;5012879;28;20198;-61
2021/03/31 07:35:12;;;;;;;19.10;12.13;;;;;;;11.11;50.49;96698.72;5013060;28;20225;-61
2021/03/31 07:37:39;;;;;;;14.27;10.57;;;;;;;11.04;48.86;96700.84;5013297;28;20205;-61
2021/03/31 07:40:11;;;;;;;15.03;10.37;;;;;;;10.89;48.84;96700.91;5012573;28;20198;-61
2021/03/31 07:42:42;;;;;;;19.20;10.80;;;;;;;10.80;48.23;96705.09;5012611;28;20634;-61
2021/03/31 07:45:12;;;;;;;23.13;12.63;;;;;;;10.88;48.90;96688.94;5012383;28;20791;-61
2021/03/31 07:47:41;;;;;;;17.03;10.87;;;;;;;10.87;47.79;96695.16;5012457;28;20206;-60
2021/03/31 07:50:11;;;;;;;15.03;10.20;;;;;;;10.92;47.34;96689.94;5012162;28;20321;-61
2021/03/31 07:52:52;;;;;;;19.67;10.23;;;;;;;10.92;47.46;96696.97;5012586;28;20670;-63
2021/03/31 07:55:36;;;;;;;15.60;10.03;;;;;;;10.86;48.02;96691.00;5012329;28;20744;-62
2021/03/31 07:58:16;;;;;;;13.23;9.50;;;;;;;11.09;47.66;96693.03;5010825;28;20199;-63
2021/03/31 08:01:01;;;;;;;14.33;8.97;;;;;;;11.23;47.54;96694.00;5012478;28;20202;-61
2021/03/31 08:03:29;;;;;;;11.30;9.30;;;;;;;11.41;46.41;96681.41;5011294;28;20270;-60
2021/03/31 08:06:20;;;;;;;12.73;9.20;;;;;;;11.38;46.29;96680.13;5012164;28;20230;-60
2021/03/31 08:09:05;;;;;;;15.57;9.60;;;;;;;11.67;46.54;96677.59;5009093;28;20565;-60
2021/03/31 08:12:05;;;;;;;18.63;9.87;;;;;;;11.73;46.16;96675.78;5012230;28;20367;-62
2021/03/31 08:14:41;;;;;;;17.70;10.30;;;;;;;11.54;46.21;96684.22;5012120;28;20261;-63
2021/03/31 08:17:09;;;;;;;14.27;9.70;;;;;;;11.41;45.67;96686.59;5011995;28;20292;-62
2021/03/31 08:19:40;;;;;;;16.87;10.23;;;;;;;11.61;46.53;96676.09;5012033;28;20209;-62
2021/03/31 08:22:26;;;;;;;21.80;12.77;;;;;;;11.88;45.63;96673.84;5011963;28;20345;-61
2021/03/31 08:24:57;;;;;;;19.33;12.00;;;;;;;11.94;45.82;96672.00;5011905;28;20290;-61
2021/03/31 08:27:26;;;;;;;16.40;11.50;;;;;;;12.23;45.28;96675.41;5011583;28;20620;-61
2021/03/31 08:29:56;;;;;;;18.47;12.17;;;;;;;12.05;45.08;96674.22;5011942;28;20238;-63
2021/03/31 08:32:25;;;;;;;13.70;9.97;;;;;;;12.13;44.35;96678.09;5011689;28;20206;-61
2021/03/31 08:34:52;;;;;;;16.30;11.33;;;;;;;12.02;45.41;96674.78;5011539;28;20285;-62
2021/03/31 08:37:25;;;;;;;14.50;10.17;;;;;;;12.08;45.78;96671.09;5011705;28;20191;-61
2021/03/31 08:39:53;;;;;;;21.23;11.47;;;;;;;12.27;44.50;96665.97;5011575;28;20630;-62
2021/03/31 08:42:21;;;;;;;18.43;10.77;;;;;;;12.49;44.54;96675.94;5011448;28;20286;-61
2021/03/31 08:44:52;;;;;;;27.87;12.40;;;;;;;12.52;44.38;96665.72;5011173;28;20234;-61
2021/03/31 08:47:24;;;;;;;17.73;10.77;;;;;;;12.54;44.59;96675.13;5011460;28;20632;-62
2021/03/31 08:49:57;;;;;;;13.57;10.10;;;;;;;12.44;44.49;96674.16;5011390;28;20333;-61
2021/03/31 08:52:25;;;;;;;16.63;10.57;;;;;;;12.46;43.75;96656.41;5011190;28;20195;-62
2021/03/31 08:54:53;;;;;;;14.63;10.13;;;;;;;12.49;44.45;96665.50;5011508;28;20201;-62
2021/03/31 08:57:21;;;;;;;18.00;10.07;;;;;;;12.69;44.14;96654.09;5011441;28;20195;-62
2021/03/31 08:59:51;;;;;;;16.03;9.80;;;;;;;12.73;43.50;96657.69;5011176;28;20241;-63
2021/03/31 09:02:20;;;;;;;15.40;9.57;;;;;;;12.87;43.11;96650.75;5010375;28;20198;-62
2021/03/31 09:04:49;;;;;;;14.40;9.33;;;;;;;12.77;42.56;96649.03;5011135;28;20203;-63
2021/03/31 09:07:17;;;;;;;16.97;10.63;;;;;;;12.49;44.11;96648.03;5011163;28;20201;-62
2021/03/31 09:09:46;;;;;;;12.77;9.87;;;;;;;12.31;43.26;96645.34;5011127;28;20266;-61
2021/03/31 09:12:15;;;;;;;20.73;10.03;;;;;;;12.41;44.01;96650.47;5010828;28;20513;-62
2021/03/31 09:14:43;;;;;;;15.13;10.00;;;;;;;12.49;43.36;96640.22;5010981;28;20218;-63
2021/03/31 09:17:16;;;;;;;17.13;10.67;;;;;;;12.55;43.60;96640.94;5010780;28;20274;-62
2021/03/31 09:19:46;;;;;;;11.47;8.80;;;;;;;12.30;43.16;96628.94;5010886;28;20245;-62
2021/03/31 09:22:17;;;;;;;23.70;10.03;;;;;;;12.22;43.96;96641.78;5011011;28;20278;-63
2021/03/31 09:24:47;;;;;;;14.37;9.10;;;;;;;12.18;44.52;96638.19;5010739;28;20210;-62
2021/03/31 09:27:15;;;;;;;13.73;9.20;;;;;;;12.54;45.22;96643.81;5010708;28;20296;-62
2021/03/31 09:29:43;;;;;;;14.33;9.50;;;;;;;12.86;43.71;96636.16;5010245;28;20763;-62
2021/03/31 09:32:12;;;;;;;13.57;9.70;;;;;;;12.91;42.47;96633.47;5010725;28;20728;-62
2021/03/31 09:34:41;;;;;;;16.83;10.93;;;;;;;12.58;43.51;96627.34;5010748;28;20238;-62
2021/03/31 09:37:15;;;;;;;13.70;9.17;;;;;;;13.09;43.65;96631.97;5010818;28;20205;-62
2021/03/31 09:39:48;;;;;;;19.07;9.80;;;;;;;12.82;43.25;96619.50;5010727;28;20201;-63
2021/03/31 09:42:26;;;;;;;15.97;10.67;;;;;;;12.90;44.83;96622.25;5010243;28;20729;-62
2021/03/31 09:44:56;;;;;;;19.20;11.10;;;;;;;12.84;45.13;96615.56;5010104;28;20321;-61
2021/03/31 09:47:24;;;;;;;16.07;10.97;;;;;;;12.59;46.42;96621.09;5010484;28;20199;-62
2021/03/31 09:49:53;;;;;;;15.13;11.13;;;;;;;12.60;44.18;96627.84;5010444;28;20226;-63
2021/03/31 09:52:27;;;;;;;14.67;10.47;;;;;;;12.56;45.07;96621.63;5010345;28;20559;-62
2021/03/31 09:55:02;;;;;;;13.60;10.50;;;;;;;12.66;46.22;96610.28;5010325;28;20255;-62
2021/03/31 09:57:30;;;;;;;14.30;10.40;;;;;;;12.46;45.87;96614.69;5010340;28;20297;-62
2021/03/31 10:00:03;;;;;;;18.70;9.53;;;;;;;12.70;42.74;96617.28;5010221;28;20218;-61
2021/03/31 10:02:32;;;;;;;12.33;9.00;;;;;;;12.99;41.76;96606.00;5010152;28;20221;-62
2021/03/31 10:05:02;;;;;;;12.23;8.30;;;;;;;13.06;41.61;96596.75;5010148;28;20566;-61
2021/03/31 10:07:32;;;;;;;17.37;8.67;;;;;;;13.38;40.58;96596.09;5010142;28;20674;-62
2021/03/31 10:10:01;;;;;;;13.13;9.13;;;;;;;13.60;40.00;96596.25;5009870;28;20233;-62
2021/03/31 10:12:31;;;;;;;12.00;8.77;;;;;;;13.38;39.62;96585.66;5010152;28;20217;-63
2021/03/31 10:14:59;;;;;;;10.93;8.40;;;;;;;13.11;40.27;96585.47;5009410;28;20210;-62
2021/03/31 10:17:29;;;;;;;20.83;11.07;;;;;;;13.27;42.98;96565.97;5009992;28;20209;-62
2021/03/31 10:20:08;;;;;;;12.50;8.20;;;;;;;13.76;41.28;96574.06;5010104;28;20199;-62
2021/03/31 10:22:36;;;;;;;13.97;8.23;;;;;;;14.03;41.69;96562.13;5010108;28;20198;-62
2021/03/31 10:25:06;;;;;;;12.27;7.43;;;;;;;14.29;37.99;96559.84;5009965;28;20380;-63
2021/03/31 10:27:43;;;;;;;12.37;7.67;;;;;;;14.17;37.14;96562.91;5009882;28;20206;-63
2021/03/31 10:30:23;;;;;;;11.37;7.67;;;;;;;14.06;38.09;96553.69;5009844;28;20222;-63
2021/03/31 10:32:50;;;;;;;8.47;7.03;;;;;;;14.20;37.36;96557.88;5010019;28;20198;-63
2021/03/31 10:35:17;;;;;;;9.80;7.70;;;;;;;13.95;37.53;96542.66;5009819;28;20198;-62
2021/03/31 10:38:00;;;;;;;10.47;7.10;;;;;;;14.05;38.19;96536.47;5010190;28;20204;-62
2021/03/31 10:48:59;;;;;;;9.57;6.67;;;;;;;14.71;37.55;96528.16;5009812;28;20604;-61
2021/03/31 10:51:38;;;;;;;8.87;7.20;;;;;;;14.40;36.94;96517.53;5009861;28;20257;-62
2021/03/31 10:54:12;;;;;;;11.57;7.33;;;;;;;14.39;37.90;96516.00;5009917;28;20205;-60
2021/03/31 10:56:48;;;;;;;9.20;6.80;;;;;;;14.88;36.73;96504.75;5009812;28;20203;-60
2021/03/31 10:59:15;;;;;;;8.63;6.60;;;;;;;14.74;36.15;96508.47;5009754;28;20661;-62
2021/03/31 11:01:42;;;;;;;9.80;6.73;;;;;;;14.48;37.32;96505.63;5009849;28;20201;-62
2021/03/31 11:04:09;;;;;;;13.00;7.07;;;;;;;14.13;37.97;96502.59;5009738;28;20198;-63
2021/03/31 11:06:36;;;;;;;10.87;7.00;;;;;;;13.93;37.54;96512.66;5009581;28;20195;-63
2021/03/31 11:09:03;;;;;;;11.10;7.53;;;;;;;13.55;38.71;96496.34;5009553;28;20649;-62
2021/03/31 11:11:34;;;;;;;12.77;7.77;;;;;;;13.67;37.76;96502.66;5009446;28;20233;-61
2021/03/31 11:14:01;;;;;;;13.47;7.23;;;;;;;13.55;37.99;96494.47;5009448;28;20205;-63
2021/03/31 11:16:28;;;;;;;12.50;7.00;;;;;;;13.60;37.66;96488.44;5009748;28;20191;-63
2021/03/31 11:19:03;;;;;;;9.90;6.47;;;;;;;13.38;36.78;96485.66;5009253;28;20237;-63
2021/03/31 11:27:00;;;;;;;9.57;6.87;;;;;;;13.30;38.76;96479.22;5013041;28;20241;-61
2021/03/31 11:29:26;;;;;;;11.37;6.87;;;;;;;13.56;36.90;96477.75;5013005;28;20218;-62
2021/03/31 11:31:53;;;;;;;8.07;6.40;;;;;;;13.42;37.09;96474.34;5013037;28;20253;-63
2021/03/31 11:34:20;;;;;;;8.80;5.70;;;;;;;13.39;35.81;96469.72;5012920;28;20256;-63
2021/03/31 11:36:49;;;;;;;10.47;6.93;;;;;;;13.41;37.00;96464.97;5012745;28;20228;-61
2021/03/31 11:39:16;;;;;;;21.40;7.93;;;;;;;13.48;37.70;96460.16;5012920;28;20614;-61
2021/03/31 11:41:43;;;;;;;9.27;6.70;;;;;;;13.48;38.01;96465.38;5012892;28;20245;-62
2021/03/31 11:44:11;;;;;;;9.73;6.80;;;;;;;13.82;36.76;96456.41;5012610;28;20309;-61
2021/03/31 11:46:38;;;;;;;8.37;6.50;;;;;;;13.96;36.05;96444.91;5012687;28;20285;-62
2021/03/31 11:49:05;;;;;;;11.47;7.47;;;;;;;14.26;36.96;96440.91;5012701;28;20202;-63
2021/03/31 11:51:32;;;;;;;8.73;6.23;;;;;;;14.45;34.31;96443.41;5012275;28;20713;-61
2021/03/31 11:53:59;;;;;;;11.17;6.90;;;;;;;14.46;35.13;96443.13;5012534;28;20194;-63
2021/03/31 11:56:25;;;;;;;8.93;6.23;;;;;;;14.57;34.23;96438.47;5012489;28;20261;-63
2021/03/31 11:58:53;;;;;;;9.10;6.23;;;;;;;14.63;33.08;96435.44;5012648;28;20281;-62
2021/03/31 12:01:21;;;;;;;8.60;7.03;;;;;;;14.95;35.40;96428.44;5012524;28;20194;-61